Time;durP1;ratioP1;P1;durP2;ratioP2;P2;SDS_P1;SDS_P2;PMS_P1;PMS_P2;Temp;Humidity;BMP_temperature;BMP_pressure;BME280_temperature;BME280_humidity;BME280_pressure;Samples;Min_cycle;Max_cycle;Signal;HPM_P1;HPM_P2
2021/05/09 00:01:08;;;;;;;0.17;0.17;;;10.00;99.90;;;;;;5050796;28;20602;-79
2021/05/09 00:03:33;;;;;;;0.20;0.20;;;9.90;99.90;;;;;;5052050;28;20188;-79
2021/05/09 00:05:59;;;;;;;0.17;0.17;;;9.90;99.90;;;;;;5052318;28;20532;-79
2021/05/09 00:08:24;;;;;;;0.10;0.10;;;9.90;99.90;;;;;;5052356;28;20198;-78
2021/05/09 00:10:50;;;;;;;0.20;0.20;;;10.00;99.90;;;;;;5052299;28;20192;-79
2021/05/09 00:13:16;;;;;;;3.27;0.33;;;10.00;99.90;;;;;;5051909;28;20200;-79
2021/05/09 00:15:42;;;;;;;0.10;0.10;;;10.00;99.90;;;;;;5045018;28;20189;-79
2021/05/09 00:18:08;;;;;;;0.93;0.30;;;10.00;99.90;;;;;;5050832;28;20658;-79
2021/05/09 00:20:34;;;;;;;0.20;0.20;;;10.00;99.90;;;;;;5051880;28;20196;-79
2021/05/09 00:23:00;;;;;;;0.83;0.20;;;10.00;99.90;;;;;;5052428;28;20196;-78
2021/05/09 00:25:26;;;;;;;0.43;0.40;;;10.00;99.90;;;;;;5052311;28;20532;-79
2021/05/09 00:27:51;;;;;;;0.10;0.10;;;10.10;99.90;;;;;;5050854;28;20201;-79
2021/05/09 00:30:19;;;;;;;0.10;0.10;;;10.10;99.90;;;;;;5048365;28;20243;-77
2021/05/09 00:32:44;;;;;;;0.10;0.10;;;10.10;99.90;;;;;;5057722;28;20185;-79
2021/05/09 00:35:11;;;;;;;0.10;0.10;;;10.10;99.90;;;;;;5057554;28;20246;-77
2021/05/09 00:37:36;;;;;;;0.40;0.10;;;10.20;99.90;;;;;;5051911;28;20216;-79
2021/05/09 00:40:03;;;;;;;0.20;0.20;;;10.20;99.90;;;;;;5053295;28;20263;-78
2021/05/09 00:42:29;;;;;;;0.20;0.20;;;10.20;99.90;;;;;;5052635;28;20645;-78
2021/05/09 00:44:54;;;;;;;0.17;0.17;;;10.30;99.90;;;;;;5054905;28;20240;-77
2021/05/09 00:47:20;;;;;;;0.37;0.10;;;10.10;99.90;;;;;;5055278;28;20288;-78
2021/05/09 00:49:45;;;;;;;0.27;0.27;;;10.00;99.90;;;;;;5054087;28;20190;-79
2021/05/09 00:52:12;;;;;;;0.10;0.03;;;9.90;99.90;;;;;;5053673;28;20221;-79
2021/05/09 00:54:56;;;;;;;0.03;0.03;;;9.90;99.90;;;;;;5054887;28;20611;-79
2021/05/09 00:57:22;;;;;;;0.10;0.10;;;9.80;99.90;;;;;;5054498;28;20216;-78
2021/05/09 00:59:52;;;;;;;0.57;0.40;;;9.80;99.90;;;;;;5052326;28;20677;-79
2021/05/09 01:02:18;;;;;;;0.20;0.20;;;9.60;99.90;;;;;;5053637;28;20189;-79
2021/05/09 01:04:45;;;;;;;0.63;0.33;;;9.40;99.90;;;;;;5052592;28;20226;-79
2021/05/09 01:07:14;;;;;;;0.40;0.40;;;9.30;99.90;;;;;;5052293;28;20576;-78
2021/05/09 01:09:41;;;;;;;0.30;0.30;;;9.30;99.90;;;;;;5053256;28;20223;-77
2021/05/09 01:12:12;;;;;;;0.10;0.10;;;9.40;99.90;;;;;;5053195;28;20208;-79
2021/05/09 01:14:39;;;;;;;0.50;0.40;;;9.30;99.90;;;;;;5040588;28;20211;-77
2021/05/09 01:17:06;;;;;;;0.10;0.10;;;9.30;99.90;;;;;;5053905;28;20208;-78
2021/05/09 01:19:33;;;;;;;2.27;0.30;;;9.30;99.90;;;;;;5052680;28;20684;-79
2021/05/09 01:22:00;;;;;;;0.20;0.20;;;9.30;99.90;;;;;;5051822;28;20542;-78
2021/05/09 01:24:25;;;;;;;0.10;0.10;;;9.20;99.90;;;;;;5050816;28;20567;-81
2021/05/09 01:26:51;;;;;;;0.10;0.10;;;9.20;99.90;;;;;;5050272;28;20217;-81
2021/05/09 01:29:17;;;;;;;0.10;0.10;;;9.20;99.90;;;;;;5052591;28;20198;-80
2021/05/09 01:31:48;;;;;;;0.13;0.13;;;9.10;99.90;;;;;;5047178;28;20202;-81
2021/05/09 01:34:14;;;;;;;0.10;0.10;;;8.90;99.90;;;;;;5049729;28;20193;-81
2021/05/09 01:36:39;;;;;;;0.10;0.10;;;8.90;99.90;;;;;;5049469;28;20231;-81
2021/05/09 01:39:06;;;;;;;0.20;0.20;;;8.90;99.90;;;;;;5047469;28;20216;-80
2021/05/09 01:41:32;;;;;;;0.30;0.30;;;9.00;99.90;;;;;;5051982;28;20223;-81
2021/05/09 01:43:57;;;;;;;0.20;0.20;;;9.20;99.90;;;;;;5051508;28;20220;-81
2021/05/09 01:46:23;;;;;;;0.20;0.20;;;9.20;99.90;;;;;;5050971;28;20723;-81
2021/05/09 01:48:48;;;;;;;0.30;0.30;;;9.20;99.90;;;;;;5052506;28;20200;-81
2021/05/09 01:51:14;;;;;;;0.30;0.30;;;9.10;99.90;;;;;;5056669;28;20668;-81
2021/05/09 01:53:40;;;;;;;0.10;0.10;;;9.00;99.90;;;;;;5049788;28;20203;-79
2021/05/09 01:56:06;;;;;;;0.17;0.17;;;9.10;99.90;;;;;;5045646;28;20213;-77
2021/05/09 01:58:31;;;;;;;0.00;0.00;;;9.20;99.90;;;;;;5051097;28;20316;-78
2021/05/09 02:00:57;;;;;;;0.10;0.10;;;9.30;99.90;;;;;;5049134;28;20192;-79
2021/05/09 02:03:22;;;;;;;0.20;0.17;;;9.20;99.90;;;;;;5051723;28;20220;-79
2021/05/09 02:05:48;;;;;;;0.10;0.10;;;9.20;99.90;;;;;;5049363;28;20181;-79
2021/05/09 02:08:13;;;;;;;0.10;0.10;;;9.30;99.90;;;;;;5051068;28;20223;-78
2021/05/09 02:10:39;;;;;;;0.10;0.10;;;9.40;99.90;;;;;;5050922;28;20199;-79
2021/05/09 02:13:05;;;;;;;0.17;0.17;;;9.50;99.90;;;;;;5049764;28;20200;-79
2021/05/09 02:15:31;;;;;;;0.10;0.10;;;9.50;99.90;;;;;;5050037;28;20695;-79
2021/05/09 02:17:56;;;;;;;0.10;0.10;;;9.60;99.90;;;;;;5050329;28;20585;-77
2021/05/09 02:20:22;;;;;;;0.10;0.10;;;9.70;99.90;;;;;;5050734;28;20226;-79
2021/05/09 02:22:48;;;;;;;0.17;0.17;;;9.70;99.90;;;;;;5042087;28;20353;-79
2021/05/09 02:25:13;;;;;;;0.20;0.20;;;9.50;99.90;;;;;;5051303;28;20189;-78
2021/05/09 02:27:39;;;;;;;0.40;0.10;;;9.30;99.90;;;;;;5049643;28;20205;-79
2021/05/09 02:30:06;;;;;;;0.17;0.17;;;9.10;99.90;;;;;;5051487;28;20526;-79
2021/05/09 02:32:31;;;;;;;0.63;0.50;;;8.90;99.90;;;;;;5046063;28;20271;-79
2021/05/09 02:34:57;;;;;;;0.10;0.10;;;9.00;99.90;;;;;;5048170;28;20281;-79
2021/05/09 02:37:23;;;;;;;0.70;0.40;;;8.90;99.90;;;;;;5046981;28;20275;-79
2021/05/09 02:39:48;;;;;;;0.33;0.33;;;8.90;99.90;;;;;;5047841;28;20204;-78
2021/05/09 02:42:14;;;;;;;0.20;0.20;;;9.00;99.90;;;;;;5044708;28;20180;-79
2021/05/09 02:44:40;;;;;;;0.20;0.20;;;9.00;99.90;;;;;;5049586;28;20244;-79
2021/05/09 02:47:05;;;;;;;0.30;0.30;;;9.00;99.90;;;;;;5048893;28;20578;-79
2021/05/09 02:49:31;;;;;;;0.10;0.10;;;9.00;99.90;;;;;;5052178;28;20659;-78
2021/05/09 02:51:58;;;;;;;0.10;0.10;;;8.90;99.90;;;;;;5051720;28;20190;-78
2021/05/09 02:54:24;;;;;;;0.10;0.10;;;9.00;99.90;;;;;;5050489;28;20192;-79
2021/05/09 02:56:49;;;;;;;0.20;0.20;;;9.10;99.90;;;;;;5050735;28;20208;-79
2021/05/09 02:59:15;;;;;;;0.10;0.10;;;9.20;99.90;;;;;;5048331;28;20222;-77
2021/05/09 03:01:40;;;;;;;0.10;0.10;;;9.40;99.90;;;;;;5046334;28;20777;-82
2021/05/09 03:04:06;;;;;;;0.10;0.10;;;9.30;99.90;;;;;;5050047;28;20260;-81
2021/05/09 03:06:31;;;;;;;0.10;0.10;;;9.20;99.90;;;;;;5049797;28;20218;-83
2021/05/09 03:08:57;;;;;;;0.30;0.30;;;9.10;99.90;;;;;;5050801;28;20220;-78
2021/05/09 03:11:27;;;;;;;0.77;0.77;;;9.10;99.90;;;;;;5047486;28;20212;-79
2021/05/09 03:13:53;;;;;;;0.10;0.10;;;9.00;99.90;;;;;;5042290;28;20243;-79
2021/05/09 03:16:19;;;;;;;0.20;0.20;;;8.90;99.90;;;;;;5046573;28;20211;-79
2021/05/09 03:18:44;;;;;;;0.10;0.10;;;9.00;99.90;;;;;;5051147;28;20501;-79
2021/05/09 03:21:10;;;;;;;0.20;0.20;;;9.00;99.90;;;;;;5050908;28;20647;-79
2021/05/09 03:23:35;;;;;;;0.10;0.10;;;9.00;99.90;;;;;;5045472;28;21047;-78
2021/05/09 03:26:01;;;;;;;0.20;0.20;;;9.10;99.90;;;;;;5043776;28;20296;-80
2021/05/09 03:28:26;;;;;;;0.50;0.27;;;9.20;99.90;;;;;;5047436;28;20683;-80
2021/05/09 03:30:52;;;;;;;4.27;0.33;;;9.20;99.90;;;;;;5051887;28;20215;-80
2021/05/09 03:33:19;;;;;;;0.17;0.17;;;9.20;99.90;;;;;;5051030;28;20189;-79
2021/05/09 03:35:44;;;;;;;0.10;0.10;;;9.30;99.90;;;;;;5051368;28;20196;-79
2021/05/09 03:38:10;;;;;;;0.23;0.20;;;9.30;99.90;;;;;;5055260;28;20193;-79
2021/05/09 03:40:37;;;;;;;1.13;0.20;;;9.30;99.90;;;;;;5050295;28;20181;-78
2021/05/09 03:43:03;;;;;;;0.10;0.10;;;9.40;99.90;;;;;;5049774;28;20596;-79
2021/05/09 03:45:28;;;;;;;0.17;0.10;;;9.30;99.90;;;;;;5044591;28;20196;-80
2021/05/09 03:47:54;;;;;;;0.40;0.40;;;9.50;99.90;;;;;;5052958;28;20314;-80
2021/05/09 03:50:20;;;;;;;0.13;0.13;;;9.40;99.90;;;;;;5052743;28;20224;-79
2021/05/09 03:52:45;;;;;;;0.10;0.10;;;9.40;99.90;;;;;;5053821;28;20288;-79
2021/05/09 03:55:11;;;;;;;0.10;0.10;;;9.50;99.90;;;;;;5055782;28;20801;-80
2021/05/09 03:57:36;;;;;;;0.20;0.20;;;9.70;99.90;;;;;;5054621;28;20716;-79
2021/05/09 04:00:04;;;;;;;0.20;0.20;;;9.70;99.90;;;;;;5055753;28;20227;-79
2021/05/09 04:02:30;;;;;;;0.50;0.40;;;9.60;99.90;;;;;;5048649;28;20185;-80
2021/05/09 04:04:55;;;;;;;0.20;0.20;;;9.80;99.90;;;;;;5055275;28;20192;-80
2021/05/09 04:07:21;;;;;;;0.53;0.53;;;9.70;99.90;;;;;;5055627;28;20204;-80
2021/05/09 04:09:46;;;;;;;0.13;0.13;;;9.90;99.90;;;;;;5053420;28;20200;-80
2021/05/09 04:12:12;;;;;;;0.20;0.20;;;9.90;99.90;;;;;;5055235;28;20184;-80
2021/05/09 04:14:37;;;;;;;0.27;0.27;;;10.00;99.90;;;;;;5054801;28;20241;-79
2021/05/09 04:17:03;;;;;;;0.20;0.20;;;10.10;99.90;;;;;;5055195;28;20236;-80
2021/05/09 04:19:29;;;;;;;0.10;0.10;;;10.10;99.90;;;;;;5054865;28;20231;-79
2021/05/09 04:21:54;;;;;;;0.83;0.20;;;9.90;99.90;;;;;;5055472;28;20192;-79
2021/05/09 04:24:20;;;;;;;0.10;0.10;;;9.80;99.90;;;;;;5055756;28;20204;-80
2021/05/09 04:26:46;;;;;;;0.10;0.10;;;9.90;99.90;;;;;;5054778;28;20221;-79
2021/05/09 04:29:11;;;;;;;0.20;0.20;;;9.90;99.90;;;;;;5054724;28;20192;-79
2021/05/09 04:31:37;;;;;;;0.00;0.00;;;9.90;99.90;;;;;;5048506;28;20200;-79
2021/05/09 04:34:02;;;;;;;0.17;0.17;;;10.00;99.90;;;;;;5052967;28;20190;-79
2021/05/09 04:36:28;;;;;;;1.10;0.43;;;9.90;99.90;;;;;;5054285;28;20255;-78
2021/05/09 04:38:54;;;;;;;0.10;0.10;;;9.90;99.90;;;;;;5053947;28;20216;-80
2021/05/09 04:41:19;;;;;;;0.30;0.30;;;10.00;99.90;;;;;;5054411;28;20205;-79
2021/05/09 04:43:45;;;;;;;0.30;0.30;;;9.90;99.90;;;;;;5055792;28;20189;-80
2021/05/09 04:46:10;;;;;;;0.37;0.37;;;9.80;99.90;;;;;;5055171;28;20213;-80
2021/05/09 04:48:36;;;;;;;0.33;0.30;;;9.80;99.90;;;;;;5056617;28;20255;-80
2021/05/09 04:51:02;;;;;;;0.30;0.30;;;9.90;99.90;;;;;;5051889;28;20193;-79
2021/05/09 04:53:31;;;;;;;0.20;0.20;;;10.00;99.90;;;;;;5053581;28;20220;-80
2021/05/09 04:55:59;;;;;;;0.13;0.13;;;10.20;99.90;;;;;;5056208;28;20186;-79
2021/05/09 04:58:25;;;;;;;1.17;0.27;;;10.30;99.90;;;;;;5054160;28;20660;-79
2021/05/09 05:01:02;;;;;;;0.10;0.10;;;10.50;99.90;;;;;;5050011;28;20215;-80
2021/05/09 05:03:29;;;;;;;0.10;0.10;;;10.90;99.90;;;;;;5046757;28;20184;-81
2021/05/09 05:05:55;;;;;;;0.13;0.13;;;11.20;99.90;;;;;;5052550;28;20729;-80
2021/05/09 05:08:21;;;;;;;0.30;0.30;;;11.30;99.90;;;;;;5054175;28;20272;-79
2021/05/09 05:10:49;;;;;;;5.40;0.20;;;11.60;99.90;;;;;;5045770;28;20189;-82
2021/05/09 05:13:21;;;;;;;0.30;0.30;;;11.80;99.90;;;;;;5059759;28;20186;-83
2021/05/09 05:15:49;;;;;;;0.20;0.20;;;11.80;99.90;;;;;;5051578;28;20602;-82
2021/05/09 05:18:15;;;;;;;0.10;0.10;;;11.90;99.90;;;;;;5054885;28;20197;-82
2021/05/09 05:20:41;;;;;;;0.10;0.10;;;11.90;99.90;;;;;;5050411;28;20201;-81
2021/05/09 05:23:07;;;;;;;0.10;0.10;;;12.00;99.90;;;;;;5050000;28;20716;-81
2021/05/09 05:25:32;;;;;;;0.23;0.20;;;12.10;99.90;;;;;;5050660;28;20178;-81
2021/05/09 05:28:00;;;;;;;0.57;0.30;;;12.30;99.90;;;;;;5053060;28;20275;-79
2021/05/09 05:30:26;;;;;;;0.17;0.17;;;12.40;99.90;;;;;;5054197;28;20186;-77
2021/05/09 05:32:52;;;;;;;0.50;0.50;;;12.50;99.90;;;;;;5052209;28;20201;-79
2021/05/09 05:35:17;;;;;;;0.30;0.30;;;12.80;99.90;;;;;;5052554;28;20189;-77
2021/05/09 05:37:43;;;;;;;0.20;0.20;;;13.00;99.90;;;;;;5051104;28;20216;-78
2021/05/09 05:40:09;;;;;;;0.97;0.47;;;13.20;99.90;;;;;;5052253;28;20359;-79
2021/05/09 05:42:35;;;;;;;0.20;0.20;;;13.50;99.90;;;;;;5050320;28;20236;-79
2021/05/09 05:45:00;;;;;;;0.20;0.20;;;13.80;99.90;;;;;;5054854;28;20175;-78
2021/05/09 05:47:26;;;;;;;0.30;0.20;;;13.90;99.90;;;;;;5053206;28;20428;-79
2021/05/09 05:49:55;;;;;;;1.33;0.37;;;14.20;99.90;;;;;;5052854;28;20186;-79
2021/05/09 05:52:20;;;;;;;0.17;0.17;;;14.40;99.90;;;;;;5051805;28;20190;-78
2021/05/09 05:54:46;;;;;;;0.23;0.23;;;14.60;99.90;;;;;;5051695;28;20627;-79
2021/05/09 05:57:12;;;;;;;0.30;0.30;;;14.50;99.90;;;;;;5052074;28;20216;-79
2021/05/09 05:59:37;;;;;;;0.20;0.20;;;14.70;99.90;;;;;;5052929;28;20213;-80
2021/05/09 06:02:03;;;;;;;0.20;0.20;;;14.90;99.90;;;;;;5051181;28;20185;-78
2021/05/09 06:04:28;;;;;;;0.30;0.30;;;14.70;99.90;;;;;;5052105;28;20176;-80
2021/05/09 06:06:54;;;;;;;0.40;0.40;;;14.80;99.90;;;;;;5054093;28;20313;-79
2021/05/09 06:09:19;;;;;;;0.20;0.20;;;14.90;99.90;;;;;;5053307;28;20679;-79
2021/05/09 06:11:45;;;;;;;0.63;0.33;;;14.80;99.90;;;;;;5052027;28;20212;-78
2021/05/09 06:14:10;;;;;;;0.30;0.30;;;15.00;99.90;;;;;;5060144;28;20192;-79
2021/05/09 06:16:36;;;;;;;0.17;0.17;;;14.90;99.90;;;;;;5050312;28;20203;-79
2021/05/09 06:19:02;;;;;;;0.23;0.23;;;15.20;99.90;;;;;;5053990;28;20236;-79
2021/05/09 06:21:27;;;;;;;0.13;0.13;;;15.30;99.90;;;;;;5051141;28;20185;-79
2021/05/09 06:23:53;;;;;;;0.63;0.30;;;15.60;99.90;;;;;;5052556;28;20660;-79
2021/05/09 06:26:18;;;;;;;0.27;0.27;;;15.60;99.90;;;;;;5050212;28;20241;-78
2021/05/09 06:28:44;;;;;;;0.20;0.20;;;15.50;99.90;;;;;;5051360;28;20185;-79
2021/05/09 06:31:09;;;;;;;1.60;0.33;;;15.60;99.90;;;;;;5049118;28;20673;-79
2021/05/09 06:33:35;;;;;;;0.30;0.30;;;15.90;99.90;;;;;;5050883;28;20192;-80
2021/05/09 06:36:01;;;;;;;0.27;0.27;;;15.70;99.90;;;;;;5048816;28;20288;-79
2021/05/09 06:38:27;;;;;;;0.50;0.50;;;15.70;99.90;;;;;;5048782;28;20224;-79
2021/05/09 06:40:52;;;;;;;0.40;0.40;;;15.90;99.90;;;;;;5050078;28;20555;-80
2021/05/09 06:43:18;;;;;;;0.20;0.20;;;16.20;99.90;;;;;;5049027;28;20220;-80
2021/05/09 06:45:46;;;;;;;0.20;0.20;;;16.40;99.90;;;;;;5052428;28;20183;-79
2021/05/09 06:48:12;;;;;;;0.33;0.33;;;16.50;99.90;;;;;;5049888;28;20613;-80
2021/05/09 06:50:38;;;;;;;0.27;0.27;;;16.70;99.90;;;;;;5057163;28;20180;-78
2021/05/09 06:53:04;;;;;;;0.30;0.30;;;16.80;99.90;;;;;;5050267;28;20200;-79
2021/05/09 06:55:30;;;;;;;0.53;0.53;;;16.60;99.90;;;;;;5047441;28;20289;-79
2021/05/09 06:57:57;;;;;;;0.17;0.17;;;16.90;99.90;;;;;;5046168;28;20800;-80
2021/05/09 07:00:23;;;;;;;0.30;0.30;;;16.90;99.90;;;;;;5046567;28;20237;-79
2021/05/09 07:02:49;;;;;;;0.10;0.10;;;17.10;99.90;;;;;;5046987;28;20676;-80
2021/05/09 07:05:15;;;;;;;0.40;0.40;;;17.30;99.90;;;;;;5051172;28;20189;-80
2021/05/09 07:07:54;;;;;;;0.37;0.37;;;17.40;99.90;;;;;;5051440;28;20635;-79
2021/05/09 07:10:22;;;;;;;0.10;0.10;;;17.50;99.90;;;;;;5050375;28;20194;-78
2021/05/09 07:12:48;;;;;;;0.17;0.17;;;17.40;99.90;;;;;;5051054;28;20221;-79
2021/05/09 07:15:17;;;;;;;0.30;0.30;;;17.50;99.90;;;;;;5045306;28;20228;-82
2021/05/09 07:18:06;;;;;;;0.20;0.20;;;17.50;99.90;;;;;;5045184;28;20211;-80
2021/05/09 07:20:34;;;;;;;0.83;0.83;;;17.70;99.90;;;;;;5029800;28;20206;-83
2021/05/09 07:23:00;;;;;;;0.53;0.53;;;17.90;99.90;;;;;;5047897;28;20186;-81
2021/05/09 07:25:26;;;;;;;0.73;0.73;;;17.50;99.90;;;;;;5043759;28;20201;-81
2021/05/09 07:27:52;;;;;;;0.50;0.50;;;17.80;99.90;;;;;;5050154;28;20232;-79
2021/05/09 07:30:18;;;;;;;1.23;1.07;;;17.70;99.90;;;;;;5051038;28;20235;-79
2021/05/09 07:32:44;;;;;;;0.50;0.40;;;17.40;99.90;;;;;;5048188;28;20276;-79
2021/05/09 07:35:10;;;;;;;0.33;0.33;;;17.70;99.90;;;;;;5040263;28;20976;-79
2021/05/09 07:37:35;;;;;;;2.60;0.60;;;17.80;99.90;;;;;;5046678;28;20205;-79
2021/05/09 07:40:01;;;;;;;0.60;0.60;;;17.30;99.90;;;;;;5046428;28;20237;-78
2021/05/09 07:42:27;;;;;;;1.20;0.40;;;17.70;99.90;;;;;;5045344;28;20186;-79
2021/05/09 07:44:56;;;;;;;0.23;0.23;;;18.10;99.90;;;;;;5043018;28;20193;-78
2021/05/09 07:47:21;;;;;;;0.43;0.43;;;18.40;99.90;;;;;;5049508;28;20193;-81
2021/05/09 07:49:47;;;;;;;0.50;0.50;;;18.70;99.90;;;;;;5053893;28;20182;-80
2021/05/09 07:52:12;;;;;;;2.13;0.63;;;18.90;99.90;;;;;;5051049;28;20253;-82
2021/05/09 07:54:38;;;;;;;0.60;0.60;;;19.10;99.90;;;;;;5047771;28;20190;-81
2021/05/09 07:57:05;;;;;;;0.77;0.53;;;18.70;99.90;;;;;;5048608;28;20216;-81
2021/05/09 07:59:32;;;;;;;1.03;0.93;;;18.00;99.90;;;;;;5048035;28;20255;-82
2021/05/09 08:01:58;;;;;;;0.37;0.30;;;18.10;99.90;;;;;;5043330;28;20296;-81
2021/05/09 08:04:23;;;;;;;0.30;0.30;;;18.60;99.90;;;;;;5049486;28;20669;-81
2021/05/09 08:06:49;;;;;;;0.40;0.40;;;18.90;99.90;;;;;;5048677;28;20686;-81
2021/05/09 08:09:14;;;;;;;0.30;0.30;;;19.20;99.90;;;;;;5052065;28;20184;-81
2021/05/09 08:11:40;;;;;;;1.33;1.10;;;19.50;99.90;;;;;;5053275;28;20686;-82
2021/05/09 08:14:05;;;;;;;0.90;0.60;;;19.60;99.90;;;;;;5050340;28;21677;-82
2021/05/09 08:16:31;;;;;;;0.77;0.73;;;19.50;99.90;;;;;;5049791;28;20233;-82
2021/05/09 08:18:56;;;;;;;0.30;0.30;;;19.30;99.90;;;;;;5053789;28;20577;-82
2021/05/09 08:21:22;;;;;;;0.30;0.30;;;19.40;99.90;;;;;;5052752;28;20187;-81
2021/05/09 08:23:47;;;;;;;1.03;0.70;;;19.60;99.90;;;;;;5049594;28;20269;-80
2021/05/09 08:26:13;;;;;;;1.40;0.63;;;19.90;99.90;;;;;;5050567;28;20770;-82
2021/05/09 08:28:42;;;;;;;0.40;0.40;;;20.20;99.90;;;;;;5048860;28;20190;-82
2021/05/09 08:31:10;;;;;;;0.70;0.70;;;20.20;99.90;;;;;;5052681;28;20725;-80
2021/05/09 08:33:35;;;;;;;0.50;0.50;;;20.40;99.90;;;;;;5050703;28;20219;-82
2021/05/09 08:36:01;;;;;;;0.43;0.43;;;20.50;99.90;;;;;;5051454;28;20597;-82
2021/05/09 08:38:27;;;;;;;0.40;0.40;;;20.40;99.90;;;;;;5054203;28;20719;-82
2021/05/09 08:40:52;;;;;;;0.80;0.80;;;20.60;99.90;;;;;;5048274;28;20683;-79
2021/05/09 08:43:18;;;;;;;1.63;0.37;;;20.80;99.90;;;;;;5052212;28;20265;-80
2021/05/09 08:45:43;;;;;;;0.50;0.50;;;21.00;99.90;;;;;;5052052;28;20182;-81
2021/05/09 08:48:22;;;;;;;0.60;0.50;;;21.00;99.90;;;;;;5054436;28;20181;-81
2021/05/09 08:50:49;;;;;;;0.30;0.30;;;20.80;99.90;;;;;;5060050;28;20190;-81
2021/05/09 08:53:19;;;;;;;0.80;0.77;;;21.10;99.90;;;;;;5050501;28;20232;-80
2021/05/09 08:55:45;;;;;;;0.70;0.40;;;21.40;99.90;;;;;;5054814;28;20177;-81
2021/05/09 08:58:11;;;;;;;0.47;0.47;;;21.40;99.90;;;;;;5051588;28;20341;-82
2021/05/09 09:00:37;;;;;;;0.40;0.40;;;21.60;99.90;;;;;;5047809;28;20229;-82
2021/05/09 09:03:04;;;;;;;0.50;0.50;;;21.90;99.90;;;;;;5053275;28;20182;-81
2021/05/09 09:05:46;;;;;;;0.30;0.30;;;21.90;99.90;;;;;;5050598;28;20185;-82
2021/05/09 09:08:16;;;;;;;0.67;0.67;;;21.90;99.90;;;;;;5053354;28;20204;-82
2021/05/09 09:10:46;;;;;;;0.47;0.47;;;21.70;99.90;;;;;;5050861;28;20181;-82
2021/05/09 09:13:31;;;;;;;0.33;0.33;;;22.00;99.90;;;;;;5049488;28;20222;-82
2021/05/09 09:16:03;;;;;;;0.20;0.20;;;22.10;99.90;;;;;;5049517;28;20212;-82
2021/05/09 09:18:37;;;;;;;0.90;0.90;;;22.00;99.90;;;;;;5051443;28;20235;-82
2021/05/09 09:21:28;;;;;;;0.50;0.50;;;22.10;99.90;;;;;;5046108;28;20248;-82
2021/05/09 09:23:54;;;;;;;0.33;0.33;;;22.30;99.90;;;;;;5051966;28;20197;-82
2021/05/09 09:26:28;;;;;;;0.77;0.77;;;22.60;99.90;;;;;;5064272;28;20214;-82
2021/05/09 09:28:54;;;;;;;0.20;0.20;;;22.70;99.90;;;;;;5052340;28;20190;-82
2021/05/09 09:31:56;;;;;;;0.50;0.50;;;22.70;99.90;;;;;;5049441;28;20201;-82
2021/05/09 09:34:35;;;;;;;0.37;0.37;;;22.80;99.90;;;;;;4990964;28;20182;-82
2021/05/09 09:37:01;;;;;;;0.40;0.40;;;22.90;99.90;;;;;;5045753;28;20213;-82
2021/05/09 09:39:47;;;;;;;1.23;1.13;;;23.00;99.90;;;;;;5053185;28;20197;-82
2021/05/09 09:42:13;;;;;;;0.40;0.40;;;22.30;99.90;;;;;;5052012;28;20217;-82
2021/05/09 09:44:38;;;;;;;1.70;0.73;;;22.50;99.90;;;;;;5054911;28;20178;-82
2021/05/09 09:47:04;;;;;;;0.80;0.80;;;22.90;99.90;;;;;;5051063;28;20221;-82
2021/05/09 09:49:33;;;;;;;0.77;0.40;;;22.70;99.90;;;;;;5047448;28;20185;-81
2021/05/09 09:52:01;;;;;;;0.47;0.47;;;23.10;99.90;;;;;;5050772;28;20189;-82
2021/05/09 09:54:46;;;;;;;0.60;0.60;;;23.30;99.90;;;;;;5044828;28;20545;-82
2021/05/09 09:57:23;;;;;;;0.53;0.53;;;23.70;99.90;;;;;;5046231;28;20213;-81
2021/05/09 10:00:09;;;;;;;0.73;0.47;;;23.90;99.90;;;;;;5049912;28;20213;-83
2021/05/09 10:02:37;;;;;;;1.40;0.70;;;24.10;99.90;;;;;;5040303;28;20210;-82
2021/05/09 10:05:03;;;;;;;0.93;0.60;;;24.30;99.90;;;;;;5045814;28;20174;-82
2021/05/09 10:07:29;;;;;;;0.30;0.30;;;24.40;99.90;;;;;;5044443;28;20202;-82
2021/05/09 10:09:58;;;;;;;0.70;0.47;;;24.40;99.90;;;;;;5046647;28;20193;-82
2021/05/09 10:12:24;;;;;;;0.50;0.50;;;24.30;99.90;;;;;;5046949;28;20186;-82
2021/05/09 10:14:51;;;;;;;0.40;0.40;;;24.30;99.90;;;;;;5048653;28;20187;-82
2021/05/09 10:17:17;;;;;;;0.63;0.53;;;24.40;99.90;;;;;;5049157;28;20700;-83
2021/05/09 10:19:43;;;;;;;0.33;0.30;;;24.50;99.90;;;;;;5048075;28;20206;-82
2021/05/09 10:22:30;;;;;;;0.50;0.50;;;24.30;99.90;;;;;;5050752;28;20186;-82
2021/05/09 10:24:57;;;;;;;0.23;0.23;;;24.70;99.90;;;;;;5049691;28;20182;-82
2021/05/09 10:27:36;;;;;;;0.63;0.63;;;24.90;99.90;;;;;;5059140;28;20268;-81
2021/05/09 10:30:05;;;;;;;0.30;0.30;;;25.00;99.90;;;;;;5052959;28;20224;-82
2021/05/09 10:32:34;;;;;;;0.20;0.20;;;25.30;99.90;;;;;;5047366;28;20264;-82
2021/05/09 10:35:04;;;;;;;0.47;0.40;;;25.50;99.90;;;;;;5048567;28;20193;-82
2021/05/09 10:37:38;;;;;;;0.47;0.47;;;25.50;99.90;;;;;;5054315;28;20205;-82
2021/05/09 10:40:18;;;;;;;0.70;0.60;;;25.70;99.90;;;;;;5048666;28;20288;-82
2021/05/09 10:42:43;;;;;;;0.50;0.50;;;25.50;99.90;;;;;;5063296;28;20268;-83
2021/05/09 10:45:09;;;;;;;0.50;0.50;;;25.70;99.90;;;;;;5062855;28;20269;-81
2021/05/09 10:47:34;;;;;;;0.47;0.47;;;25.80;99.90;;;;;;5048139;28;20730;-82
2021/05/09 10:50:18;;;;;;;0.70;0.60;;;26.00;99.90;;;;;;5055158;28;20202;-81
2021/05/09 10:52:46;;;;;;;0.67;0.67;;;26.10;99.90;;;;;;5054129;28;20189;-81
2021/05/09 10:55:38;;;;;;;0.40;0.40;;;26.20;99.90;;;;;;5052283;28;20196;-82
2021/05/09 10:58:07;;;;;;;0.50;0.50;;;26.20;99.90;;;;;;5047484;28;20232;-83
2021/05/09 11:00:55;;;;;;;0.40;0.40;;;26.00;99.90;;;;;;5053046;28;20340;-82
2021/05/09 11:03:44;;;;;;;0.40;0.40;;;26.10;99.90;;;;;;5050704;28;20280;-82
2021/05/09 11:06:15;;;;;;;0.90;0.53;;;25.90;99.90;;;;;;5041416;28;20193;-82
2021/05/09 11:08:52;;;;;;;0.40;0.40;;;25.90;99.90;;;;;;5057846;28;20178;-83
2021/05/09 11:11:33;;;;;;;0.70;0.60;;;26.20;99.90;;;;;;5056235;28;20208;-81
2021/05/09 11:14:10;;;;;;;0.60;0.60;;;26.40;99.90;;;;;;5054560;28;20185;-82
2021/05/09 11:16:40;;;;;;;2.93;0.87;;;26.60;99.90;;;;;;5046092;28;20229;-82
2021/05/09 11:19:08;;;;;;;0.60;0.60;;;26.70;99.90;;;;;;5053210;28;20243;-82
2021/05/09 11:21:35;;;;;;;1.03;0.53;;;26.90;99.90;;;;;;5045500;28;20586;-82
2021/05/09 11:24:04;;;;;;;0.47;0.47;;;26.80;99.90;;;;;;5042173;28;20224;-81
2021/05/09 11:26:32;;;;;;;0.63;0.63;;;26.80;99.90;;;;;;5042953;28;20244;-83
2021/05/09 11:29:24;;;;;;;1.60;1.07;;;27.10;99.90;;;;;;5049575;28;20197;-82
2021/05/09 11:31:52;;;;;;;0.40;0.40;;;27.30;99.90;;;;;;5045221;28;20252;-83
2021/05/09 11:34:19;;;;;;;0.50;0.50;;;27.50;99.90;;;;;;5046658;28;20192;-83
2021/05/09 11:36:47;;;;;;;0.50;0.50;;;27.50;99.90;;;;;;5044303;28;20716;-83
2021/05/09 11:39:18;;;;;;;0.47;0.47;;;27.60;99.90;;;;;;5050620;28;20298;-83
2021/05/09 11:42:15;;;;;;;0.40;0.40;;;27.60;99.90;;;;;;5049676;28;20177;-84
2021/05/09 11:44:52;;;;;;;0.40;0.40;;;27.80;99.90;;;;;;5048540;28;20189;-83
2021/05/09 11:47:29;;;;;;;0.37;0.37;;;27.90;99.90;;;;;;5048733;28;20627;-83
2021/05/09 11:50:00;;;;;;;0.57;0.40;;;28.10;99.90;;;;;;5051414;28;20177;-83
2021/05/09 11:52:28;;;;;;;0.67;0.60;;;28.10;99.90;;;;;;5049121;28;20196;-83
2021/05/09 11:54:56;;;;;;;1.00;0.60;;;28.10;99.90;;;;;;5050172;28;20184;-83
2021/05/09 11:57:24;;;;;;;0.38;0.38;;;28.10;99.90;;;;;;5050854;28;20206;-82
2021/05/09 11:59:57;;;;;;;0.97;0.40;;;28.10;99.90;;;;;;5054799;28;20205;-82
2021/05/09 12:02:24;;;;;;;0.60;0.60;;;28.30;99.90;;;;;;5051106;28;20653;-81
2021/05/09 12:04:57;;;;;;;0.88;0.55;;;28.50;99.90;;;;;;5068262;28;20182;-83
2021/05/09 12:07:25;;;;;;;0.68;0.68;;;28.90;99.90;;;;;;5057622;28;20256;-82
2021/05/09 12:10:08;;;;;;;0.57;0.57;;;28.90;99.90;;;;;;5050308;28;20858;-84
2021/05/09 12:12:36;;;;;;;0.22;0.22;;;29.00;99.90;;;;;;5050779;28;20239;-83
2021/05/09 12:15:05;;;;;;;0.50;0.50;;;29.00;99.90;;;;;;5053695;28;20295;-84
2021/05/09 12:17:31;;;;;;;0.30;0.30;;;29.10;99.90;;;;;;5048356;28;20213;-81
2021/05/09 12:19:57;;;;;;;0.40;0.40;;;29.50;99.90;;;;;;5050281;28;20213;-81
2021/05/09 12:22:24;;;;;;;0.73;0.73;;;29.70;99.90;;;;;;5049440;28;20650;-81
2021/05/09 12:24:57;;;;;;;0.73;0.73;;;29.60;99.90;;;;;;5046872;28;20182;-83
2021/05/09 12:27:26;;;;;;;0.82;0.47;;;29.70;99.90;;;;;;5045765;28;20693;-81
2021/05/09 12:29:57;;;;;;;0.43;0.43;;;29.80;99.90;;;;;;5049154;28;20746;-82
2021/05/09 12:32:31;;;;;;;0.60;0.60;;;29.80;99.90;;;;;;5046579;28;20801;-82
2021/05/09 12:35:01;;;;;;;0.60;0.60;;;29.90;99.90;;;;;;5054943;28;20193;-82
2021/05/09 12:37:29;;;;;;;6.70;0.50;;;29.80;99.90;;;;;;5060306;28;20259;-82
2021/05/09 12:40:29;;;;;;;0.50;0.50;;;29.70;99.90;;;;;;5047262;28;20589;-81
2021/05/09 12:43:04;;;;;;;0.60;0.60;;;29.70;99.90;;;;;;5053029;28;20557;-82
2021/05/09 12:45:38;;;;;;;0.38;0.38;;;29.90;99.90;;;;;;5054697;28;20263;-81
2021/05/09 12:48:07;;;;;;;0.40;0.40;;;30.10;99.90;;;;;;5055293;28;20276;-81
2021/05/09 12:50:53;;;;;;;0.40;0.40;;;30.10;99.90;;;;;;5053334;28;20185;-81
2021/05/09 12:53:36;;;;;;;0.60;0.60;;;30.40;99.90;;;;;;5054486;28;20561;-82
2021/05/09 12:56:32;;;;;;;0.80;0.50;;;30.50;99.90;;;;;;5050696;28;20236;-81